sensor_id;sensor_type;location;lat;lon;timestamp;pressure;altitude;pressure_sealevel;temperature;humidity
76337;BME280;65157;50.082;18.178;2023-02-27T00:00:15;99788.26;;;0.12;74.93
76337;BME280;65157;50.082;18.178;2023-02-27T00:03:01;99786.17;;;0.12;75.07
76337;BME280;65157;50.082;18.178;2023-02-27T00:05:27;99780.78;;;0.10;74.85
76337;BME280;65157;50.082;18.178;2023-02-27T00:07:53;99782.84;;;0.09;74.75
76337;BME280;65157;50.082;18.178;2023-02-27T00:10:19;99782.66;;;0.07;74.39
76337;BME280;65157;50.082;18.178;2023-02-27T00:12:48;99783.66;;;0.04;74.78
76337;BME280;65157;50.082;18.178;2023-02-27T00:15:17;99781.40;;;0.02;74.75
76337;BME280;65157;50.082;18.178;2023-02-27T00:17:44;99785.91;;;0.01;74.79
76337;BME280;65157;50.082;18.178;2023-02-27T00:20:12;99784.15;;;-0.02;74.36
76337;BME280;65157;50.082;18.178;2023-02-27T00:22:39;99782.40;;;-0.04;75.01
76337;BME280;65157;50.082;18.178;2023-02-27T00:25:06;99790.05;;;-0.03;74.65
76337;BME280;65157;50.082;18.178;2023-02-27T00:27:33;99793.31;;;-0.05;74.93
76337;BME280;65157;50.082;18.178;2023-02-27T00:30:00;99794.69;;;-0.06;74.23
76337;BME280;65157;50.082;18.178;2023-02-27T00:32:26;99791.52;;;-0.13;74.12
76337;BME280;65157;50.082;18.178;2023-02-27T00:34:52;99797.96;;;-0.10;74.14
76337;BME280;65157;50.082;18.178;2023-02-27T00:37:18;99797.59;;;-0.11;74.12
76337;BME280;65157;50.082;18.178;2023-02-27T00:39:44;99798.10;;;-0.11;74.36
76337;BME280;65157;50.082;18.178;2023-02-27T00:42:10;99791.86;;;-0.12;74.44
76337;BME280;65157;50.082;18.178;2023-02-27T00:44:46;99798.30;;;-0.11;74.26
76337;BME280;65157;50.082;18.178;2023-02-27T00:47:12;99795.86;;;-0.10;74.19
76337;BME280;65157;50.082;18.178;2023-02-27T00:49:38;99796.03;;;-0.11;73.84
76337;BME280;65157;50.082;18.178;2023-02-27T00:52:04;99793.94;;;-0.12;73.77
76337;BME280;65157;50.082;18.178;2023-02-27T00:54:32;99797.04;;;-0.14;73.45
76337;BME280;65157;50.082;18.178;2023-02-27T00:57:00;99799.30;;;-0.14;73.46
76337;BME280;65157;50.082;18.178;2023-02-27T00:59:26;99795.48;;;-0.16;73.48
76337;BME280;65157;50.082;18.178;2023-02-27T01:01:53;99799.63;;;-0.16;73.53
76337;BME280;65157;50.082;18.178;2023-02-27T01:04:19;99800.52;;;-0.15;73.67
76337;BME280;65157;50.082;18.178;2023-02-27T01:06:45;99799.31;;;-0.13;73.64
76337;BME280;65157;50.082;18.178;2023-02-27T01:09:11;99799.83;;;-0.13;73.16
76337;BME280;65157;50.082;18.178;2023-02-27T01:11:37;99794.99;;;-0.12;73.51
76337;BME280;65157;50.082;18.178;2023-02-27T01:14:03;99794.11;;;-0.12;72.69
76337;BME280;65157;50.082;18.178;2023-02-27T01:16:30;99798.63;;;-0.12;73.12
76337;BME280;65157;50.082;18.178;2023-02-27T01:18:56;99798.45;;;-0.12;72.71
76337;BME280;65157;50.082;18.178;2023-02-27T01:21:22;99799.67;;;-0.11;72.79
76337;BME280;65157;50.082;18.178;2023-02-27T01:23:48;99805.92;;;-0.11;72.39
76337;BME280;65157;50.082;18.178;2023-02-27T01:26:14;99806.80;;;-0.10;72.26
76337;BME280;65157;50.082;18.178;2023-02-27T01:28:40;99808.72;;;-0.09;72.38
76337;BME280;65157;50.082;18.178;2023-02-27T01:31:06;99810.13;;;-0.07;71.68
76337;BME280;65157;50.082;18.178;2023-02-27T01:33:32;99809.10;;;-0.07;71.38
76337;BME280;65157;50.082;18.178;2023-02-27T01:35:58;99812.54;;;-0.08;71.28
76337;BME280;65157;50.082;18.178;2023-02-27T01:38:24;99804.52;;;-0.11;71.38
76337;BME280;65157;50.082;18.178;2023-02-27T01:40:54;99816.04;;;-0.06;71.20
76337;BME280;65157;50.082;18.178;2023-02-27T01:43:21;99816.03;;;-0.06;70.88
76337;BME280;65157;50.082;18.178;2023-02-27T01:45:48;99816.89;;;-0.05;70.83
76337;BME280;65157;50.082;18.178;2023-02-27T01:48:23;99817.92;;;-0.09;71.14
76337;BME280;65157;50.082;18.178;2023-02-27T01:50:52;99822.66;;;-0.03;70.86
76337;BME280;65157;50.082;18.178;2023-02-27T01:53:19;99817.77;;;-0.06;70.54
76337;BME280;65157;50.082;18.178;2023-02-27T01:55:47;99824.73;;;-0.05;70.72
76337;BME280;65157;50.082;18.178;2023-02-27T01:58:14;99822.99;;;-0.04;70.94
76337;BME280;65157;50.082;18.178;2023-02-27T02:00:40;99827.14;;;-0.06;70.68
76337;BME280;65157;50.082;18.178;2023-02-27T02:03:24;99832.70;;;-0.05;71.09
76337;BME280;65157;50.082;18.178;2023-02-27T02:05:55;99829.23;;;-0.05;70.62
76337;BME280;65157;50.082;18.178;2023-02-27T02:08:23;99831.83;;;-0.06;70.22
76337;BME280;65157;50.082;18.178;2023-02-27T02:10:54;99832.00;;;-0.06;70.13
76337;BME280;65157;50.082;18.178;2023-02-27T02:13:22;99836.86;;;-0.05;70.47
76337;BME280;65157;50.082;18.178;2023-02-27T02:16:12;99841.58;;;-0.04;70.53
76337;BME280;65157;50.082;18.178;2023-02-27T02:33:34;99860.77;;;-0.08;68.99
76337;BME280;65157;50.082;18.178;2023-02-27T02:42:06;99874.67;;;-0.07;70.19
76337;BME280;65157;50.082;18.178;2023-02-27T02:47:42;99872.39;;;-0.08;70.63
76337;BME280;65157;50.082;18.178;2023-02-27T02:52:50;99879.80;;;-0.13;70.28
76337;BME280;65157;50.082;18.178;2023-02-27T02:55:28;99878.55;;;-0.16;70.28
76337;BME280;65157;50.082;18.178;2023-02-27T03:00:46;99879.73;;;-0.20;70.94
76337;BME280;65157;50.082;18.178;2023-02-27T03:03:24;99875.21;;;-0.21;71.28
76337;BME280;65157;50.082;18.178;2023-02-27T03:06:05;99876.95;;;-0.21;71.65
76337;BME280;65157;50.082;18.178;2023-02-27T03:08:48;99879.21;;;-0.20;72.46
76337;BME280;65157;50.082;18.178;2023-02-27T03:11:16;99881.48;;;-0.19;72.69
76337;BME280;65157;50.082;18.178;2023-02-27T03:13:47;99881.49;;;-0.17;72.76
76337;BME280;65157;50.082;18.178;2023-02-27T03:16:30;99881.85;;;-0.16;73.28
76337;BME280;65157;50.082;18.178;2023-02-27T03:19:05;99882.04;;;-0.16;73.30
76337;BME280;65157;50.082;18.178;2023-02-27T03:24:06;99882.77;;;-0.13;73.66
76337;BME280;65157;50.082;18.178;2023-02-27T03:26:46;99885.39;;;-0.11;73.57
76337;BME280;65157;50.082;18.178;2023-02-27T03:29:26;99888.87;;;-0.10;73.63
76337;BME280;65157;50.082;18.178;2023-02-27T03:32:02;99888.71;;;-0.08;73.58
76337;BME280;65157;50.082;18.178;2023-02-27T03:34:32;99890.13;;;-0.05;73.62
76337;BME280;65157;50.082;18.178;2023-02-27T03:37:05;99892.39;;;-0.05;73.68
76337;BME280;65157;50.082;18.178;2023-02-27T03:39:49;99892.07;;;-0.02;73.99
76337;BME280;65157;50.082;18.178;2023-02-27T03:42:28;99897.14;;;0.01;73.68
76337;BME280;65157;50.082;18.178;2023-02-27T03:47:50;99884.33;;;0.04;73.53
76337;BME280;65157;50.082;18.178;2023-02-27T03:50:16;99881.53;;;0.02;73.47
76337;BME280;65157;50.082;18.178;2023-02-27T03:52:43;99888.85;;;0.07;73.57
76337;BME280;65157;50.082;18.178;2023-02-27T03:55:25;99888.53;;;0.08;73.74
76337;BME280;65157;50.082;18.178;2023-02-27T03:57:53;99890.27;;;0.08;73.52
76337;BME280;65157;50.082;18.178;2023-02-27T04:00:21;99888.83;;;0.03;73.33
76337;BME280;65157;50.082;18.178;2023-02-27T04:02:50;99894.59;;;0.07;73.08
76337;BME280;65157;50.082;18.178;2023-02-27T04:05:18;99902.06;;;0.08;73.01
76337;BME280;65157;50.082;18.178;2023-02-27T04:11:07;99906.21;;;0.05;72.57
76337;BME280;65157;50.082;18.178;2023-02-27T04:13:50;99908.09;;;0.03;72.48
76337;BME280;65157;50.082;18.178;2023-02-27T04:19:21;99917.61;;;0.01;72.51
76337;BME280;65157;50.082;18.178;2023-02-27T04:24:45;99925.23;;;-0.01;72.52
76337;BME280;65157;50.082;18.178;2023-02-27T04:30:39;99930.46;;;0.02;72.21
76337;BME280;65157;50.082;18.178;2023-02-27T04:33:11;99927.63;;;-0.03;72.13
76337;BME280;65157;50.082;18.178;2023-02-27T04:35:48;99934.27;;;0.01;72.11
76337;BME280;65157;50.082;18.178;2023-02-27T04:38:26;99938.95;;;0.00;72.29
76337;BME280;65157;50.082;18.178;2023-02-27T04:40:57;99937.39;;;0.00;71.99
76337;BME280;65157;50.082;18.178;2023-02-27T04:43:26;99938.26;;;0.00;72.22
76337;BME280;65157;50.082;18.178;2023-02-27T04:45:55;99939.47;;;-0.01;71.73
76337;BME280;65157;50.082;18.178;2023-02-27T04:48:29;99938.41;;;-0.02;71.74
76337;BME280;65157;50.082;18.178;2023-02-27T04:50:59;99940.16;;;-0.01;71.94
76337;BME280;65157;50.082;18.178;2023-02-27T04:56:28;99939.80;;;-0.02;71.73
76337;BME280;65157;50.082;18.178;2023-02-27T04:59:16;99942.39;;;-0.02;71.61
76337;BME280;65157;50.082;18.178;2023-02-27T05:02:08;99941.17;;;-0.02;71.86
76337;BME280;65157;50.082;18.178;2023-02-27T05:04:38;99941.50;;;-0.05;71.90
76337;BME280;65157;50.082;18.178;2023-02-27T05:07:10;99949.32;;;-0.04;71.55
76337;BME280;65157;50.082;18.178;2023-02-27T05:09:48;99950.15;;;-0.06;71.60
76337;BME280;65157;50.082;18.178;2023-02-27T05:17:30;99956.27;;;-0.03;72.17
76337;BME280;65157;50.082;18.178;2023-02-27T05:19:58;99958.00;;;-0.03;71.77
76337;BME280;65157;50.082;18.178;2023-02-27T05:35:37;99970.67;;;-0.03;72.10
76337;BME280;65157;50.082;18.178;2023-02-27T05:38:16;99966.81;;;-0.06;72.12
76337;BME280;65157;50.082;18.178;2023-02-27T05:40:56;99971.88;;;-0.03;72.06
76337;BME280;65157;50.082;18.178;2023-02-27T05:43:36;99966.30;;;-0.06;72.64
76337;BME280;65157;50.082;18.178;2023-02-27T05:46:12;99933.83;;;-0.23;72.28
76337;BME280;65157;50.082;18.178;2023-02-27T05:48:48;99976.58;;;-0.02;72.25
76337;BME280;65157;50.082;18.178;2023-02-27T05:51:18;99978.29;;;-0.04;71.87
76337;BME280;65157;50.082;18.178;2023-02-27T05:54:02;99965.02;;;-0.12;72.59
76337;BME280;65157;50.082;18.178;2023-02-27T05:56:32;99984.55;;;-0.03;72.30
76337;BME280;65157;50.082;18.178;2023-02-27T05:59:33;99986.98;;;-0.02;72.36
76337;BME280;65157;50.082;18.178;2023-02-27T06:02:03;99992.57;;;-0.01;72.46
76337;BME280;65157;50.082;18.178;2023-02-27T06:04:37;99987.12;;;-0.06;72.56
76337;BME280;65157;50.082;18.178;2023-02-27T06:07:04;99999.52;;;0.00;72.40
76337;BME280;65157;50.082;18.178;2023-02-27T06:09:31;99992.36;;;-0.02;72.57
76337;BME280;65157;50.082;18.178;2023-02-27T06:11:57;99997.25;;;-0.00;72.52
76337;BME280;65157;50.082;18.178;2023-02-27T06:14:24;100005.60;;;0.01;72.37
76337;BME280;65157;50.082;18.178;2023-02-27T06:16:50;100003.81;;;-0.02;72.67
76337;BME280;65157;50.082;18.178;2023-02-27T06:19:19;100003.85;;;-0.00;72.93
76337;BME280;65157;50.082;18.178;2023-02-27T06:21:57;100008.55;;;0.02;72.73
76337;BME280;65157;50.082;18.178;2023-02-27T06:24:25;99996.16;;;-0.04;72.39
76337;BME280;65157;50.082;18.178;2023-02-27T06:26:51;100007.70;;;0.03;72.77
76337;BME280;65157;50.082;18.178;2023-02-27T06:29:19;100014.35;;;0.08;72.50
76337;BME280;65157;50.082;18.178;2023-02-27T06:31:47;100017.12;;;0.08;72.69
76337;BME280;65157;50.082;18.178;2023-02-27T06:34:14;100017.31;;;0.10;72.69
76337;BME280;65157;50.082;18.178;2023-02-27T06:36:40;100010.17;;;0.07;72.91
76337;BME280;65157;50.082;18.178;2023-02-27T06:39:07;100016.30;;;0.12;72.64
76337;BME280;65157;50.082;18.178;2023-02-27T06:41:36;100023.27;;;0.14;72.53
76337;BME280;65157;50.082;18.178;2023-02-27T06:44:06;100025.20;;;0.16;72.34
76337;BME280;65157;50.082;18.178;2023-02-27T06:46:32;100027.44;;;0.15;72.15
76337;BME280;65157;50.082;18.178;2023-02-27T06:49:01;100031.10;;;0.16;72.30
76337;BME280;65157;50.082;18.178;2023-02-27T06:51:27;100032.17;;;0.18;72.69
76337;BME280;65157;50.082;18.178;2023-02-27T06:53:53;100028.05;;;0.21;72.88
76337;BME280;65157;50.082;18.178;2023-02-27T06:56:23;100029.13;;;0.24;72.63
76337;BME280;65157;50.082;18.178;2023-02-27T06:58:49;100031.23;;;0.27;72.54
76337;BME280;65157;50.082;18.178;2023-02-27T07:01:15;100036.65;;;0.30;72.51
76337;BME280;65157;50.082;18.178;2023-02-27T07:03:43;100023.54;;;0.23;72.30
76337;BME280;65157;50.082;18.178;2023-02-27T07:06:11;100032.34;;;0.33;72.48
76337;BME280;65157;50.082;18.178;2023-02-27T07:08:40;100037.12;;;0.40;72.43
76337;BME280;65157;50.082;18.178;2023-02-27T07:11:06;100035.20;;;0.40;71.92
76337;BME280;65157;50.082;18.178;2023-02-27T07:13:36;100042.89;;;0.43;71.64
76337;BME280;65157;50.082;18.178;2023-02-27T07:16:02;100039.45;;;0.46;71.99
76337;BME280;65157;50.082;18.178;2023-02-27T07:18:28;100040.86;;;0.49;71.89
76337;BME280;65157;50.082;18.178;2023-02-27T07:20:55;100036.52;;;0.48;71.99
76337;BME280;65157;50.082;18.178;2023-02-27T07:23:22;100044.58;;;0.55;71.99
76337;BME280;65157;50.082;18.178;2023-02-27T07:25:48;100033.77;;;0.50;72.05
76337;BME280;65157;50.082;18.178;2023-02-27T07:28:14;100041.08;;;0.53;71.77
76337;BME280;65157;50.082;18.178;2023-02-27T07:30:44;100054.21;;;0.64;71.42
76337;BME280;65157;50.082;18.178;2023-02-27T07:33:10;100053.20;;;0.67;71.50
76337;BME280;65157;50.082;18.178;2023-02-27T07:36:01;100051.15;;;0.69;71.33
76337;BME280;65157;50.082;18.178;2023-02-27T07:38:29;100051.36;;;0.72;71.40
76337;BME280;65157;50.082;18.178;2023-02-27T07:40:55;100049.67;;;0.77;71.31
76337;BME280;65157;50.082;18.178;2023-02-27T07:43:23;100051.64;;;0.84;71.45
76337;BME280;65157;50.082;18.178;2023-02-27T07:45:49;100059.18;;;0.90;71.35
76337;BME280;65157;50.082;18.178;2023-02-27T07:48:16;100062.19;;;0.96;71.27
76337;BME280;65157;50.082;18.178;2023-02-27T07:50:43;100061.90;;;1.03;71.49
76337;BME280;65157;50.082;18.178;2023-02-27T07:53:12;100064.05;;;1.10;71.28
76337;BME280;65157;50.082;18.178;2023-02-27T07:55:39;100061.66;;;1.15;71.18
76337;BME280;65157;50.082;18.178;2023-02-27T07:58:05;100065.73;;;1.22;71.11
76337;BME280;65157;50.082;18.178;2023-02-27T08:00:31;100064.89;;;1.28;70.92
76337;BME280;65157;50.082;18.178;2023-02-27T08:02:57;100068.08;;;1.34;70.91
76337;BME280;65157;50.082;18.178;2023-02-27T08:05:24;100069.51;;;1.39;71.02
76337;BME280;65157;50.082;18.178;2023-02-27T08:07:50;100069.19;;;1.41;70.75
76337;BME280;65157;50.082;18.178;2023-02-27T08:10:16;100073.39;;;1.46;70.58
76337;BME280;65157;50.082;18.178;2023-02-27T08:12:42;100077.06;;;1.48;70.35
76337;BME280;65157;50.082;18.178;2023-02-27T08:15:08;100076.73;;;1.51;70.92
76337;BME280;65157;50.082;18.178;2023-02-27T08:17:34;100078.86;;;1.58;71.17
76337;BME280;65157;50.082;18.178;2023-02-27T08:20:00;100082.23;;;1.65;71.18
76337;BME280;65157;50.082;18.178;2023-02-27T08:22:27;100073.35;;;1.65;71.03
76337;BME280;65157;50.082;18.178;2023-02-27T08:24:56;100090.67;;;1.79;70.91
76337;BME280;65157;50.082;18.178;2023-02-27T08:27:24;100097.48;;;1.84;70.79
76337;BME280;65157;50.082;18.178;2023-02-27T08:29:53;100098.91;;;1.89;70.98
76337;BME280;65157;50.082;18.178;2023-02-27T08:32:30;100088.64;;;1.86;71.14
76337;BME280;65157;50.082;18.178;2023-02-27T08:34:57;100109.59;;;1.99;71.37
76337;BME280;65157;50.082;18.178;2023-02-27T08:37:24;100108.58;;;2.03;71.21
76337;BME280;65157;50.082;18.178;2023-02-27T08:39:50;100109.10;;;2.03;70.88
76337;BME280;65157;50.082;18.178;2023-02-27T08:42:16;100111.02;;;2.03;70.98
76337;BME280;65157;50.082;18.178;2023-02-27T08:44:42;100112.59;;;2.04;71.21
76337;BME280;65157;50.082;18.178;2023-02-27T08:47:11;100116.44;;;2.06;71.33
76337;BME280;65157;50.082;18.178;2023-02-27T08:49:38;100120.61;;;2.07;71.32
76337;BME280;65157;50.082;18.178;2023-02-27T08:52:04;100115.92;;;2.11;71.30
76337;BME280;65157;50.082;18.178;2023-02-27T08:54:30;100119.08;;;2.13;71.14
76337;BME280;65157;50.082;18.178;2023-02-27T08:57:00;100120.84;;;2.17;71.18
76337;BME280;65157;50.082;18.178;2023-02-27T08:59:26;100121.74;;;2.22;71.64
76337;BME280;65157;50.082;18.178;2023-02-27T09:01:53;100128.56;;;2.26;71.55
76337;BME280;65157;50.082;18.178;2023-02-27T09:04:19;100128.76;;;2.33;71.29
76337;BME280;65157;50.082;18.178;2023-02-27T09:06:48;100131.23;;;2.39;71.03
76337;BME280;65157;50.082;18.178;2023-02-27T09:09:14;100131.95;;;2.43;70.96
76337;BME280;65157;50.082;18.178;2023-02-27T09:11:40;100133.88;;;2.46;70.79
76337;BME280;65157;50.082;18.178;2023-02-27T09:14:07;100135.13;;;2.51;70.94
76337;BME280;65157;50.082;18.178;2023-02-27T09:16:36;100134.10;;;2.57;70.91
76337;BME280;65157;50.082;18.178;2023-02-27T09:19:03;100133.60;;;2.62;71.02
76337;BME280;65157;50.082;18.178;2023-02-27T09:21:33;100134.67;;;2.69;70.93
76337;BME280;65157;50.082;18.178;2023-02-27T09:24:04;100130.16;;;2.76;70.74
76337;BME280;65157;50.082;18.178;2023-02-27T09:26:30;100128.62;;;2.84;70.78
76337;BME280;65157;50.082;18.178;2023-02-27T09:28:56;100128.64;;;2.92;70.60
76337;BME280;65157;50.082;18.178;2023-02-27T09:31:22;100127.78;;;2.99;70.61
76337;BME280;65157;50.082;18.178;2023-02-27T09:33:49;100127.80;;;3.06;70.21
76337;BME280;65157;50.082;18.178;2023-02-27T09:36:17;100132.34;;;3.11;69.97
76337;BME280;65157;50.082;18.178;2023-02-27T09:38:44;100133.59;;;3.19;70.05
76337;BME280;65157;50.082;18.178;2023-02-27T09:41:27;100133.25;;;3.26;69.96
76337;BME280;65157;50.082;18.178;2023-02-27T09:43:56;100123.48;;;3.34;69.74
76337;BME280;65157;50.082;18.178;2023-02-27T09:46:28;100124.36;;;3.41;69.62
76337;BME280;65157;50.082;18.178;2023-02-27T09:48:57;100123.82;;;3.42;68.98
76337;BME280;65157;50.082;18.178;2023-02-27T09:51:26;100127.66;;;3.34;69.03
76337;BME280;65157;50.082;18.178;2023-02-27T09:53:58;100131.50;;;3.30;68.44
76337;BME280;65157;50.082;18.178;2023-02-27T09:56:34;100133.41;;;3.22;68.69
76337;BME280;65157;50.082;18.178;2023-02-27T09:59:41;100137.41;;;3.16;68.87
76337;BME280;65157;50.082;18.178;2023-02-27T10:08:26;100138.42;;;3.01;69.17
76337;BME280;65157;50.082;18.178;2023-02-27T10:11:14;100142.07;;;2.93;69.37
76337;BME280;65157;50.082;18.178;2023-02-27T10:13:57;100144.66;;;2.85;69.23
76337;BME280;65157;50.082;18.178;2023-02-27T10:16:25;100137.64;;;2.68;69.38
76337;BME280;65157;50.082;18.178;2023-02-27T10:19:00;100144.23;;;2.63;69.73
76337;BME280;65157;50.082;18.178;2023-02-27T10:21:36;100150.14;;;2.56;70.34
76337;BME280;65157;50.082;18.178;2023-02-27T10:24:25;100153.75;;;2.50;70.85
76337;BME280;65157;50.082;18.178;2023-02-27T10:26:59;100150.77;;;2.43;71.51
76337;BME280;65157;50.082;18.178;2023-02-27T10:29:38;100149.16;;;2.36;71.39
76337;BME280;65157;50.082;18.178;2023-02-27T10:32:19;100147.38;;;2.27;71.74
76337;BME280;65157;50.082;18.178;2023-02-27T10:35:19;100153.92;;;2.15;72.19
76337;BME280;65157;50.082;18.178;2023-02-27T10:37:47;100155.58;;;2.02;72.58
76337;BME280;65157;50.082;18.178;2023-02-27T10:40:16;100145.38;;;1.87;72.80
76337;BME280;65157;50.082;18.178;2023-02-27T10:42:43;100151.23;;;1.79;73.06
76337;BME280;65157;50.082;18.178;2023-02-27T10:45:16;100150.50;;;1.75;73.56
76337;BME280;65157;50.082;18.178;2023-02-27T10:47:43;100150.34;;;1.74;73.70
76337;BME280;65157;50.082;18.178;2023-02-27T10:50:25;100147.52;;;1.71;73.77
76337;BME280;65157;50.082;18.178;2023-02-27T10:52:56;100137.54;;;1.62;73.69
76337;BME280;65157;50.082;18.178;2023-02-27T10:55:35;100142.80;;;1.67;74.07
76337;BME280;65157;50.082;18.178;2023-02-27T10:58:03;100148.19;;;1.68;73.93
76337;BME280;65157;50.082;18.178;2023-02-27T11:02:56;100150.65;;;1.70;74.07
76337;BME280;65157;50.082;18.178;2023-02-27T11:05:34;100147.52;;;1.70;74.04
76337;BME280;65157;50.082;18.178;2023-02-27T11:08:21;100148.05;;;1.72;74.13
76337;BME280;65157;50.082;18.178;2023-02-27T11:11:07;100149.29;;;1.74;74.00
76337;BME280;65157;50.082;18.178;2023-02-27T11:13:40;100153.84;;;1.77;74.03
76337;BME280;65157;50.082;18.178;2023-02-27T11:16:18;100155.91;;;1.76;73.81
76337;BME280;65157;50.082;18.178;2023-02-27T11:18:50;100157.59;;;1.68;73.45
76337;BME280;65157;50.082;18.178;2023-02-27T11:21:27;100157.23;;;1.47;73.32
76337;BME280;65157;50.082;18.178;2023-02-27T11:24:09;100158.73;;;1.38;73.67
76337;BME280;65157;50.082;18.178;2023-02-27T11:27:24;100136.05;;;1.30;74.27
76337;BME280;65157;50.082;18.178;2023-02-27T11:30:29;100149.96;;;1.50;74.06
76337;BME280;65157;50.082;18.178;2023-02-27T11:32:59;100146.05;;;1.62;74.08
76337;BME280;65157;50.082;18.178;2023-02-27T11:35:37;100144.05;;;1.73;74.70
76337;BME280;65157;50.082;18.178;2023-02-27T11:38:06;100145.41;;;1.92;75.25
76337;BME280;65157;50.082;18.178;2023-02-27T11:40:57;100139.29;;;2.15;75.50
76337;BME280;65157;50.082;18.178;2023-02-27T11:43:30;100137.70;;;2.41;74.91
76337;BME280;65157;50.082;18.178;2023-02-27T11:46:06;100140.09;;;2.73;75.42
76337;BME280;65157;50.082;18.178;2023-02-27T11:48:39;100133.04;;;3.06;74.18
76337;BME280;65157;50.082;18.178;2023-02-27T11:56:39;100123.66;;;3.66;72.83
76337;BME280;65157;50.082;18.178;2023-02-27T12:01:48;100128.02;;;3.84;70.31
76337;BME280;65157;50.082;18.178;2023-02-27T12:07:12;100134.11;;;4.02;70.87
76337;BME280;65157;50.082;18.178;2023-02-27T12:15:46;100132.51;;;4.15;66.30
76337;BME280;65157;50.082;18.178;2023-02-27T12:18:36;100137.23;;;4.08;66.30
76337;BME280;65157;50.082;18.178;2023-02-27T12:21:17;100149.30;;;3.94;66.14
76337;BME280;65157;50.082;18.178;2023-02-27T12:23:50;100152.28;;;3.81;66.12
76337;BME280;65157;50.082;18.178;2023-02-27T12:26:30;100149.67;;;3.67;65.10
76337;BME280;65157;50.082;18.178;2023-02-27T12:29:07;100155.79;;;3.50;63.96
76337;BME280;65157;50.082;18.178;2023-02-27T12:31:47;100159.07;;;3.30;63.50
76337;BME280;65157;50.082;18.178;2023-02-27T12:36:53;100165.48;;;3.09;64.33
76337;BME280;65157;50.082;18.178;2023-02-27T12:39:22;100158.84;;;3.08;64.39
76337;BME280;65157;50.082;18.178;2023-02-27T12:50:19;100158.61;;;2.86;62.67
76337;BME280;65157;50.082;18.178;2023-02-27T12:53:10;100158.48;;;2.95;63.72
76337;BME280;65157;50.082;18.178;2023-02-27T12:56:03;100154.31;;;3.06;62.81
76337;BME280;65157;50.082;18.178;2023-02-27T13:01:43;100153.98;;;3.23;60.90
76337;BME280;65157;50.082;18.178;2023-02-27T13:04:43;100144.92;;;3.17;61.42
76337;BME280;65157;50.082;18.178;2023-02-27T13:07:27;100155.92;;;3.28;62.19
76337;BME280;65157;50.082;18.178;2023-02-27T13:09:57;100164.66;;;3.38;62.00
76337;BME280;65157;50.082;18.178;2023-02-27T13:12:35;100163.27;;;3.43;62.43
76337;BME280;65157;50.082;18.178;2023-02-27T13:15:18;100165.54;;;3.46;61.95
76337;BME280;65157;50.082;18.178;2023-02-27T13:17:57;100166.94;;;3.44;61.42
76337;BME280;65157;50.082;18.178;2023-02-27T13:20:37;100167.28;;;3.43;62.09
76337;BME280;65157;50.082;18.178;2023-02-27T13:23:32;100171.84;;;3.42;63.20
76337;BME280;65157;50.082;18.178;2023-02-27T13:26:02;100173.75;;;3.35;63.80
76337;BME280;65157;50.082;18.178;2023-02-27T13:28:33;100176.35;;;3.28;63.70
76337;BME280;65157;50.082;18.178;2023-02-27T13:31:30;100178.59;;;3.22;64.38
76337;BME280;65157;50.082;18.178;2023-02-27T13:36:45;100178.38;;;3.10;64.47
76337;BME280;65157;50.082;18.178;2023-02-27T13:45:44;100185.17;;;3.02;64.34
76337;BME280;65157;50.082;18.178;2023-02-27T13:47:55;100186.75;;;3.04;64.75
76337;BME280;65157;50.082;18.178;2023-02-27T13:52:47;100185.70;;;3.06;64.69
76337;BME280;65157;50.082;18.178;2023-02-27T13:55:27;100183.98;;;3.14;65.50
76337;BME280;65157;50.082;18.178;2023-02-27T13:57:56;100178.60;;;3.22;65.00
76337;BME280;65157;50.082;18.178;2023-02-27T14:00:33;100182.10;;;3.32;64.72
76337;BME280;65157;50.082;18.178;2023-02-27T14:03:06;100182.46;;;3.42;64.61
76337;BME280;65157;50.082;18.178;2023-02-27T14:05:40;100186.16;;;3.50;64.77
76337;BME280;65157;50.082;18.178;2023-02-27T14:08:32;100184.92;;;3.55;64.68
76337;BME280;65157;50.082;18.178;2023-02-27T14:24:24;100183.55;;;3.82;61.80
76337;BME280;65157;50.082;18.178;2023-02-27T14:26:59;100179.19;;;3.71;61.57
76337;BME280;65157;50.082;18.178;2023-02-27T14:29:37;100181.27;;;3.57;62.26
76337;BME280;65157;50.082;18.178;2023-02-27T14:32:04;100174.10;;;3.47;62.40
76337;BME280;65157;50.082;18.178;2023-02-27T14:34:31;100195.74;;;3.56;62.90
76337;BME280;65157;50.082;18.178;2023-02-27T14:36:59;100198.89;;;3.53;62.55
76337;BME280;65157;50.082;18.178;2023-02-27T14:39:31;100199.23;;;3.46;62.16
76337;BME280;65157;50.082;18.178;2023-02-27T14:44:41;100198.34;;;3.39;62.76
76337;BME280;65157;50.082;18.178;2023-02-27T14:49:57;100199.59;;;3.54;61.65
76337;BME280;65157;50.082;18.178;2023-02-27T14:52:28;100204.83;;;3.53;61.24
76337;BME280;65157;50.082;18.178;2023-02-27T14:55:24;100201.33;;;3.54;62.38
76337;BME280;65157;50.082;18.178;2023-02-27T14:58:18;100203.95;;;3.55;61.56
76337;BME280;65157;50.082;18.178;2023-02-27T15:01:02;100205.52;;;3.54;62.07
76337;BME280;65157;50.082;18.178;2023-02-27T15:03:58;100204.30;;;3.55;62.28
76337;BME280;65157;50.082;18.178;2023-02-27T15:06:41;100209.36;;;3.56;61.96
76337;BME280;65157;50.082;18.178;2023-02-27T15:09:34;100201.16;;;3.54;62.15
76337;BME280;65157;50.082;18.178;2023-02-27T15:11:59;100210.05;;;3.57;61.56
76337;BME280;65157;50.082;18.178;2023-02-27T15:14:30;100211.10;;;3.52;60.68
76337;BME280;65157;50.082;18.178;2023-02-27T15:16:59;100209.70;;;3.44;60.70
76337;BME280;65157;50.082;18.178;2023-02-27T15:19:29;100212.64;;;3.35;60.71
76337;BME280;65157;50.082;18.178;2023-02-27T15:22:00;100213.66;;;3.26;60.64
76337;BME280;65157;50.082;18.178;2023-02-27T15:24:34;100215.92;;;3.19;60.85
76337;BME280;65157;50.082;18.178;2023-02-27T15:27:06;100215.72;;;3.11;60.92
76337;BME280;65157;50.082;18.178;2023-02-27T15:29:42;100221.27;;;3.03;61.40
76337;BME280;65157;50.082;18.178;2023-02-27T15:32:30;100223.69;;;2.94;61.51
76337;BME280;65157;50.082;18.178;2023-02-27T15:37:37;100231.09;;;2.75;61.82